Time;durP1;ratioP1;P1;durP2;ratioP2;P2;SDS_P1;SDS_P2;PMS_P1;PMS_P2;Temp;Humidity;BMP_temperature;BMP_pressure;BME280_temperature;BME280_humidity;BME280_pressure;Samples;Min_cycle;Max_cycle;Signal;HPM_P1;HPM_P2
2022/01/03 00:01:05;;;;;;;8.13;3.00;;;10.10;1.00;;;;;;5115101;28;20211;-61
2022/01/03 00:03:33;;;;;;;10.43;3.73;;;10.10;1.00;;;;;;5115384;28;20211;-63
2022/01/03 00:06:00;;;;;;;10.40;3.13;;;10.10;1.00;;;;;;5115107;28;20563;-64
2022/01/03 00:08:28;;;;;;;5.27;1.87;;;10.10;1.00;;;;;;5115015;28;20231;-63
2022/01/03 00:10:57;;;;;;;5.37;2.47;;;10.10;1.00;;;;;;5114953;28;20233;-63
2022/01/03 00:13:24;;;;;;;7.20;2.37;;;10.10;1.00;;;;;;5115029;28;20204;-63
2022/01/03 00:15:52;;;;;;;10.47;2.70;;;10.10;1.00;;;;;;5115018;28;20253;-62
2022/01/03 00:18:19;;;;;;;6.63;2.20;;;10.00;1.00;;;;;;5115036;28;20238;-62
2022/01/03 00:20:56;;;;;;;7.93;1.83;;;10.00;1.00;;;;;;5114933;28;20256;-62
2022/01/03 00:23:25;;;;;;;8.13;1.97;;;9.90;1.00;;;;;;5114751;28;20203;-62
2022/01/03 00:25:57;;;;;;;7.40;2.20;;;9.90;1.00;;;;;;5114974;28;20208;-63
2022/01/03 00:28:26;;;;;;;7.30;2.17;;;9.90;1.00;;;;;;5114617;28;20272;-63
2022/01/03 00:30:56;;;;;;;9.80;2.43;;;10.00;1.00;;;;;;5115043;28;20203;-61
2022/01/03 00:33:24;;;;;;;6.70;2.50;;;10.00;1.00;;;;;;5114798;28;20260;-60
2022/01/03 00:35:54;;;;;;;8.20;2.10;;;9.90;1.00;;;;;;5114269;28;20210;-62
2022/01/03 00:38:22;;;;;;;5.53;2.50;;;9.80;1.00;;;;;;5114476;28;20357;-61
2022/01/03 00:40:49;;;;;;;9.33;2.83;;;9.70;1.00;;;;;;5113613;28;20251;-62
2022/01/03 00:43:17;;;;;;;9.07;2.73;;;9.60;1.00;;;;;;5114740;28;20206;-62
2022/01/03 00:45:44;;;;;;;12.33;2.70;;;9.50;1.00;;;;;;5114406;28;20684;-62
2022/01/03 00:48:12;;;;;;;10.70;2.63;;;9.50;1.00;;;;;;5114831;28;20249;-62
2022/01/03 00:50:40;;;;;;;16.13;2.97;;;9.40;1.00;;;;;;5114912;28;20664;-60
2022/01/03 00:53:09;;;;;;;10.43;2.47;;;9.40;1.00;;;;;;5114644;27;20202;-61
2022/01/03 00:55:36;;;;;;;14.67;2.80;;;9.40;1.00;;;;;;5114574;28;20573;-62
2022/01/03 00:58:07;;;;;;;11.07;2.57;;;9.40;1.00;;;;;;5113796;27;20322;-62
2022/01/03 01:00:38;;;;;;;9.30;2.30;;;9.40;1.00;;;;;;5114188;28;20711;-59
2022/01/03 01:03:10;;;;;;;8.30;2.23;;;9.40;1.00;;;;;;5113932;28;20214;-60
2022/01/03 01:05:40;;;;;;;10.73;1.67;;;9.40;1.00;;;;;;5113919;28;20206;-62
2022/01/03 01:08:08;;;;;;;15.53;2.63;;;9.40;1.00;;;;;;5113562;28;20750;-61
2022/01/03 01:10:37;;;;;;;14.00;2.37;;;9.40;1.00;;;;;;5113393;28;20626;-62
2022/01/03 01:13:05;;;;;;;10.37;2.17;;;9.40;1.00;;;;;;5113953;28;20276;-62
2022/01/03 01:15:31;;;;;;;9.27;1.83;;;9.40;1.00;;;;;;5113628;28;20257;-59
2022/01/03 01:17:59;;;;;;;9.03;1.87;;;9.30;1.00;;;;;;5113556;28;20222;-57
2022/01/03 01:20:26;;;;;;;13.20;2.07;;;9.30;1.00;;;;;;5113541;28;20234;-60
2022/01/03 01:22:53;;;;;;;17.17;2.63;;;9.30;1.00;;;;;;5113522;28;20207;-61
2022/01/03 01:27:45;;;;;;;12.40;1.90;;;9.30;1.00;;;;;;5113627;28;20259;-62
2022/01/03 01:28:13;;;;;;;9.10;2.20;;;9.30;1.00;;;;;;5112977;28;20246;-60
2022/01/03 01:30:41;;;;;;;10.53;2.20;;;9.30;1.00;;;;;;5113445;27;20190;-62
2022/01/03 01:33:11;;;;;;;11.07;2.37;;;9.30;1.00;;;;;;5113092;28;20691;-63
2022/01/03 01:35:42;;;;;;;7.27;1.83;;;9.30;1.00;;;;;;5113358;28;20212;-63
2022/01/03 01:38:10;;;;;;;11.97;2.00;;;9.30;1.00;;;;;;5113068;28;20310;-63
2022/01/03 01:40:45;;;;;;;10.27;2.17;;;9.20;1.00;;;;;;5113312;28;20204;-63
2022/01/03 01:43:13;;;;;;;10.73;2.03;;;9.30;1.00;;;;;;5113607;28;20642;-62
2022/01/03 01:45:42;;;;;;;13.67;2.30;;;9.30;1.00;;;;;;5112914;28;20226;-61
2022/01/03 01:48:12;;;;;;;14.33;2.23;;;9.30;1.00;;;;;;5112936;28;20238;-59
2022/01/03 01:50:41;;;;;;;12.90;2.43;;;9.30;1.00;;;;;;5112995;28;20294;-60
2022/01/03 01:53:08;;;;;;;11.20;2.20;;;9.40;1.00;;;;;;5113187;28;20310;-62
2022/01/03 01:55:44;;;;;;;11.47;2.27;;;9.40;1.00;;;;;;5113021;28;20207;-60
2022/01/03 01:58:24;;;;;;;9.03;1.97;;;9.50;1.00;;;;;;5112994;28;20230;-63
2022/01/03 02:00:58;;;;;;;10.63;1.80;;;9.40;1.00;;;;;;5113187;28;20206;-63
2022/01/03 02:03:32;;;;;;;11.43;2.03;;;9.50;1.00;;;;;;5113169;28;20214;-62
2022/01/03 02:06:07;;;;;;;13.03;2.10;;;9.50;1.00;;;;;;5112812;28;20210;-63
2022/01/03 02:08:39;;;;;;;12.37;2.33;;;9.50;1.00;;;;;;5112706;28;20578;-62
2022/01/03 02:11:14;;;;;;;13.93;2.43;;;9.40;1.00;;;;;;5112998;28;20207;-62
2022/01/03 02:13:44;;;;;;;12.30;2.13;;;9.40;1.00;;;;;;5113257;28;20610;-63
2022/01/03 02:16:11;;;;;;;12.90;2.37;;;9.40;1.00;;;;;;5113102;28;20214;-62
2022/01/03 02:18:38;;;;;;;12.67;2.27;;;9.40;1.00;;;;;;5112593;28;20273;-63
2022/01/03 02:21:06;;;;;;;15.00;2.20;;;9.40;1.00;;;;;;5112686;28;20210;-63
2022/01/03 02:23:34;;;;;;;8.07;1.97;;;9.40;1.00;;;;;;5112620;28;20256;-60
2022/01/03 02:26:01;;;;;;;11.03;2.30;;;9.40;1.00;;;;;;5113060;28;20294;-62
2022/01/03 02:28:27;;;;;;;15.00;2.17;;;9.40;1.00;;;;;;5113128;28;20230;-60
2022/01/03 02:30:54;;;;;;;12.20;2.10;;;9.40;1.00;;;;;;5112201;28;20207;-60
2022/01/03 02:33:21;;;;;;;13.43;2.70;;;9.40;1.00;;;;;;5112540;27;20219;-62
2022/01/03 02:35:48;;;;;;;13.13;2.43;;;9.40;1.00;;;;;;5112120;28;20206;-60
2022/01/03 02:38:16;;;;;;;13.40;1.87;;;9.40;1.00;;;;;;5111748;28;20324;-60
2022/01/03 02:40:43;;;;;;;4.20;1.80;;;9.40;1.00;;;;;;5112301;28;20210;-60
2022/01/03 02:43:10;;;;;;;12.63;2.00;;;9.50;1.00;;;;;;5112119;28;20207;-61
2022/01/03 02:45:37;;;;;;;8.63;2.17;;;9.50;1.00;;;;;;5112410;28;20219;-59
2022/01/03 02:48:07;;;;;;;12.77;2.50;;;9.50;1.00;;;;;;5112329;28;20211;-62
2022/01/03 02:50:34;;;;;;;14.00;1.77;;;9.50;1.00;;;;;;5112491;28;20653;-60
2022/01/03 02:53:01;;;;;;;14.70;2.20;;;9.50;1.00;;;;;;5112512;28;20204;-62
2022/01/03 02:55:29;;;;;;;10.70;1.53;;;9.50;1.00;;;;;;5112730;28;20199;-59
2022/01/03 02:58:05;;;;;;;9.73;2.03;;;9.50;99.90;;;;;;5112134;28;20291;-61
2022/01/03 03:00:34;;;;;;;10.63;1.67;;;9.50;99.90;;;;;;5112146;28;20201;-60
2022/01/03 03:03:02;;;;;;;10.30;2.27;;;9.40;1.00;;;;;;5111608;28;20733;-61
2022/01/03 03:05:29;;;;;;;7.40;1.80;;;9.40;1.00;;;;;;5112362;28;20206;-61
2022/01/03 03:07:56;;;;;;;8.50;2.07;;;9.40;1.00;;;;;;5112123;28;20261;-59
2022/01/03 03:10:24;;;;;;;9.07;2.10;;;9.40;99.90;;;;;;5112258;28;20206;-59
2022/01/03 03:12:53;;;;;;;12.70;2.50;;;9.40;99.90;;;;;;5112464;28;20213;-61
2022/01/03 03:15:20;;;;;;;13.70;2.20;;;9.40;99.90;;;;;;5112286;28;20269;-61
2022/01/03 03:17:48;;;;;;;11.53;2.03;;;9.40;99.90;;;;;;5111702;28;20230;-61
2022/01/03 03:20:17;;;;;;;12.93;2.90;;;9.40;99.90;;;;;;5112214;28;20314;-60
2022/01/03 03:22:45;;;;;;;10.03;2.17;;;9.50;99.90;;;;;;5112102;28;20573;-60
2022/01/03 03:25:14;;;;;;;10.27;2.30;;;9.40;99.90;;;;;;5112163;28;20214;-62
2022/01/03 03:27:44;;;;;;;12.40;1.87;;;9.40;99.90;;;;;;5111815;28;20293;-62
2022/01/03 03:30:14;;;;;;;10.67;2.20;;;9.40;99.90;;;;;;5112142;28;20232;-62
2022/01/03 03:32:43;;;;;;;7.70;1.77;;;9.30;99.90;;;;;;5112195;28;20206;-61
2022/01/03 03:35:10;;;;;;;12.17;2.10;;;9.30;99.90;;;;;;5111964;28;20204;-62
2022/01/03 03:37:37;;;;;;;11.50;2.00;;;9.30;99.90;;;;;;5112010;28;20644;-63
2022/01/03 03:40:05;;;;;;;11.60;2.13;;;9.30;99.90;;;;;;5112306;28;20243;-63
2022/01/03 03:42:31;;;;;;;5.83;1.87;;;9.30;99.90;;;;;;5112070;28;20251;-60
2022/01/03 03:44:58;;;;;;;9.70;1.80;;;9.30;99.90;;;;;;5111869;28;20214;-62
2022/01/03 03:47:26;;;;;;;11.03;2.63;;;9.30;99.90;;;;;;5112161;28;20275;-62
2022/01/03 03:49:53;;;;;;;7.80;1.77;;;9.30;99.90;;;;;;5112061;28;20259;-63
2022/01/03 03:52:20;;;;;;;9.97;2.30;;;9.30;99.90;;;;;;5112591;28;20203;-62
2022/01/03 03:54:46;;;;;;;11.90;2.90;;;9.30;99.90;;;;;;5112404;28;20207;-62
2022/01/03 03:57:13;;;;;;;10.40;1.90;;;9.30;99.90;;;;;;5111706;28;20202;-62
2022/01/03 03:59:40;;;;;;;10.97;2.60;;;9.30;99.90;;;;;;5112142;28;20348;-61
2022/01/03 04:02:07;;;;;;;12.07;1.53;;;9.30;99.90;;;;;;5112129;28;20260;-61
2022/01/03 04:04:35;;;;;;;6.73;1.80;;;9.30;99.90;;;;;;5111975;28;20227;-61
2022/01/03 04:07:02;;;;;;;14.17;1.93;;;9.30;99.90;;;;;;5111699;28;20628;-63
2022/01/03 04:09:30;;;;;;;14.00;2.33;;;9.40;99.90;;;;;;5111539;28;20222;-62
2022/01/03 04:11:56;;;;;;;9.30;1.63;;;9.40;99.90;;;;;;5111795;28;20215;-59
2022/01/03 04:14:23;;;;;;;16.03;2.37;;;9.40;99.90;;;;;;5111675;28;20216;-60
2022/01/03 04:16:50;;;;;;;10.27;2.47;;;9.40;99.90;;;;;;5115353;28;20636;-63
2022/01/03 04:19:16;;;;;;;4.17;1.43;;;9.40;99.90;;;;;;5114989;28;20232;-60
2022/01/03 04:21:44;;;;;;;9.27;1.63;;;9.40;99.90;;;;;;5114983;28;20209;-61
2022/01/03 04:24:12;;;;;;;12.23;1.63;;;9.40;99.90;;;;;;5115160;28;20268;-60
2022/01/03 04:26:40;;;;;;;10.50;2.30;;;9.40;99.90;;;;;;5114929;28;20203;-61
2022/01/03 04:29:07;;;;;;;12.13;2.07;;;9.40;99.90;;;;;;5115359;28;20239;-62
2022/01/03 04:31:34;;;;;;;6.83;1.60;;;9.40;99.90;;;;;;5115180;28;20206;-61
2022/01/03 04:34:01;;;;;;;10.90;2.00;;;9.40;99.90;;;;;;5114798;28;20207;-58
2022/01/03 04:36:28;;;;;;;8.93;1.67;;;9.30;99.90;;;;;;5114762;28;20699;-62
2022/01/03 04:38:56;;;;;;;15.20;2.77;;;9.30;99.90;;;;;;5114682;28;20299;-61
2022/01/03 04:41:23;;;;;;;7.60;1.40;;;9.30;99.90;;;;;;5115102;28;20280;-61
2022/01/03 04:43:50;;;;;;;16.17;1.83;;;9.30;99.90;;;;;;5114671;28;20215;-62
2022/01/03 04:46:16;;;;;;;9.73;1.80;;;9.20;99.90;;;;;;5114673;27;20206;-61
2022/01/03 04:48:43;;;;;;;12.80;2.10;;;9.20;99.90;;;;;;5114699;28;20589;-62
2022/01/03 04:51:10;;;;;;;12.93;2.33;;;9.10;99.90;;;;;;5114450;28;20210;-60
2022/01/03 04:53:40;;;;;;;10.20;1.80;;;9.10;99.90;;;;;;5114457;28;20209;-61
2022/01/03 04:56:08;;;;;;;9.87;2.20;;;9.10;99.90;;;;;;5114406;28;20210;-59
2022/01/03 04:58:35;;;;;;;10.00;1.70;;;9.10;99.90;;;;;;5114566;28;20316;-60
2022/01/03 05:01:02;;;;;;;7.83;1.67;;;9.10;99.90;;;;;;5114501;28;20206;-60
2022/01/03 05:03:29;;;;;;;13.13;2.20;;;9.10;99.90;;;;;;5110955;27;20201;-62
2022/01/03 05:05:56;;;;;;;10.93;1.93;;;9.10;99.90;;;;;;5105966;28;20197;-62
2022/01/03 05:08:22;;;;;;;11.87;2.90;;;9.00;99.90;;;;;;5110375;28;20211;-61
2022/01/03 05:10:49;;;;;;;9.77;2.20;;;9.10;99.90;;;;;;5114350;28;20266;-60
2022/01/03 05:13:17;;;;;;;7.90;1.67;;;9.00;99.90;;;;;;5114156;28;20231;-60
2022/01/03 05:15:44;;;;;;;11.50;2.00;;;9.00;99.90;;;;;;5112076;28;20214;-60
2022/01/03 05:18:11;;;;;;;13.30;2.10;;;9.00;99.90;;;;;;5113881;27;20388;-62
2022/01/03 05:20:38;;;;;;;13.70;2.50;;;9.00;99.90;;;;;;5113620;28;20209;-60
2022/01/03 05:23:04;;;;;;;8.43;2.20;;;9.00;99.90;;;;;;5114103;28;20255;-60
2022/01/03 05:25:31;;;;;;;11.00;2.10;;;9.00;99.90;;;;;;5111957;28;20199;-61
2022/01/03 05:27:58;;;;;;;8.17;2.43;;;9.00;99.90;;;;;;5114010;28;20685;-60
2022/01/03 05:30:26;;;;;;;17.03;2.80;;;9.00;99.90;;;;;;5114146;28;20214;-62
2022/01/03 05:32:53;;;;;;;13.30;1.87;;;9.00;99.90;;;;;;5113611;28;20203;-62
2022/01/03 05:35:19;;;;;;;8.17;1.87;;;9.00;99.90;;;;;;5112458;28;20211;-62
2022/01/03 05:37:46;;;;;;;16.13;2.60;;;9.00;99.90;;;;;;5112595;28;20210;-62
2022/01/03 05:40:13;;;;;;;13.57;2.27;;;9.10;99.90;;;;;;5113977;28;20276;-61
2022/01/03 05:42:41;;;;;;;15.37;2.40;;;9.10;99.90;;;;;;5113633;28;20212;-63
2022/01/03 05:45:08;;;;;;;9.67;1.90;;;9.00;99.90;;;;;;5113388;28;20249;-63
2022/01/03 05:47:36;;;;;;;10.10;1.70;;;9.00;99.90;;;;;;5112188;28;20613;-57
2022/01/03 05:50:04;;;;;;;8.60;2.30;;;9.00;99.90;;;;;;5113583;28;20229;-60
2022/01/03 05:52:32;;;;;;;11.23;1.87;;;9.00;99.90;;;;;;5113672;28;20210;-61
2022/01/03 05:54:59;;;;;;;13.80;1.90;;;9.00;99.90;;;;;;5113324;28;20206;-60
2022/01/03 05:57:26;;;;;;;10.27;2.60;;;9.10;99.90;;;;;;5111830;28;20614;-62
2022/01/03 05:59:53;;;;;;;11.90;2.30;;;9.10;99.90;;;;;;5113178;28;20726;-63
2022/01/03 06:02:19;;;;;;;11.20;1.90;;;9.10;99.90;;;;;;5112590;28;20610;-63
2022/01/03 06:04:56;;;;;;;13.00;1.90;;;9.10;99.90;;;;;;5112518;27;20209;-61
2022/01/03 06:07:23;;;;;;;16.17;2.33;;;9.10;99.90;;;;;;5112860;28;20229;-61
2022/01/03 06:09:51;;;;;;;8.40;1.90;;;9.10;99.90;;;;;;5112926;28;20309;-63
2022/01/03 06:12:18;;;;;;;9.07;1.80;;;9.10;99.90;;;;;;5109969;28;20230;-63
2022/01/03 06:14:46;;;;;;;13.97;2.60;;;9.10;99.90;;;;;;5089756;28;20607;-63
2022/01/03 06:17:13;;;;;;;9.37;2.20;;;9.10;99.90;;;;;;5092348;28;20625;-61
2022/01/03 06:19:41;;;;;;;8.13;1.67;;;9.10;99.90;;;;;;5091773;28;20773;-63
2022/01/03 06:22:11;;;;;;;7.63;1.57;;;9.10;99.90;;;;;;5091937;28;20742;-62
2022/01/03 06:24:39;;;;;;;10.67;2.10;;;9.10;99.90;;;;;;5091848;28;20289;-63
2022/01/03 06:27:07;;;;;;;12.40;2.27;;;9.10;99.90;;;;;;5096764;28;20205;-64
2022/01/03 06:29:34;;;;;;;14.93;2.03;;;9.10;99.90;;;;;;5112270;28;20705;-61
2022/01/03 06:32:00;;;;;;;9.43;2.37;;;9.10;99.90;;;;;;5112292;28;20206;-64
2022/01/03 06:34:27;;;;;;;11.23;2.20;;;9.10;99.90;;;;;;5112137;28;20669;-64
2022/01/03 06:36:54;;;;;;;9.67;1.73;;;9.10;99.90;;;;;;5111848;28;20622;-62
2022/01/03 06:39:22;;;;;;;11.20;1.80;;;9.10;99.90;;;;;;5111944;28;20241;-63
2022/01/03 06:41:48;;;;;;;14.30;2.40;;;9.10;99.90;;;;;;5112099;28;20336;-62
2022/01/03 06:44:15;;;;;;;12.30;2.57;;;9.10;99.90;;;;;;5111871;27;20222;-63
2022/01/03 06:46:42;;;;;;;9.90;2.40;;;9.20;99.90;;;;;;5112371;28;20210;-63
2022/01/03 06:49:08;;;;;;;12.07;2.57;;;9.20;99.90;;;;;;5112609;28;20223;-64
2022/01/03 06:51:35;;;;;;;10.87;1.73;;;9.20;99.90;;;;;;5112414;28;20623;-63
2022/01/03 06:54:04;;;;;;;11.07;1.87;;;9.30;99.90;;;;;;5111907;28;20213;-62
2022/01/03 06:56:32;;;;;;;12.00;2.77;;;9.20;99.90;;;;;;5110747;28;20215;-63
2022/01/03 06:58:58;;;;;;;12.13;2.10;;;9.20;99.90;;;;;;5112129;28;20231;-63
2022/01/03 07:01:25;;;;;;;6.77;1.77;;;9.20;99.90;;;;;;5112051;28;20282;-64
2022/01/03 07:03:52;;;;;;;10.97;2.10;;;9.30;99.90;;;;;;5111850;28;20211;-63
2022/01/03 07:06:18;;;;;;;10.50;2.10;;;9.30;99.90;;;;;;5111848;28;20202;-62
2022/01/03 07:08:45;;;;;;;10.40;2.17;;;9.30;99.90;;;;;;5111464;28;20220;-61
2022/01/03 07:11:12;;;;;;;8.40;2.27;;;9.30;99.90;;;;;;5112136;28;20203;-64
2022/01/03 07:13:47;;;;;;;14.93;2.10;;;9.30;99.90;;;;;;5107063;28;20206;-62
2022/01/03 07:18:59;;;;;;;11.57;2.43;;;9.30;99.90;;;;;;5111834;28;20249;-63
2022/01/03 07:21:27;;;;;;;12.10;1.90;;;9.30;99.90;;;;;;5111573;28;20214;-63
2022/01/03 07:23:54;;;;;;;7.03;2.20;;;9.30;99.90;;;;;;5112108;28;20210;-63
2022/01/03 07:26:21;;;;;;;8.67;2.30;;;9.30;99.90;;;;;;5111474;28;20203;-64
2022/01/03 07:28:50;;;;;;;6.63;1.87;;;9.30;99.90;;;;;;5111639;28;20253;-63
2022/01/03 07:31:17;;;;;;;17.97;2.43;;;9.30;99.90;;;;;;5111915;28;20204;-61
2022/01/03 07:33:43;;;;;;;10.67;2.13;;;9.30;99.90;;;;;;5111250;28;20206;-61
2022/01/03 07:36:11;;;;;;;11.53;2.20;;;9.30;99.90;;;;;;5111502;28;20380;-61
2022/01/03 07:38:38;;;;;;;12.53;2.33;;;9.30;99.90;;;;;;5111721;28;20227;-62
2022/01/03 07:41:05;;;;;;;12.50;2.23;;;9.30;99.90;;;;;;5112087;28;20297;-63
2022/01/03 07:43:32;;;;;;;10.47;2.30;;;9.30;99.90;;;;;;5111780;28;20210;-62
2022/01/03 07:46:00;;;;;;;10.07;2.40;;;9.30;99.90;;;;;;5111031;28;20222;-63
2022/01/03 07:48:27;;;;;;;7.57;1.47;;;9.30;99.90;;;;;;5111275;28;20273;-63
2022/01/03 07:50:54;;;;;;;11.47;2.17;;;9.30;99.90;;;;;;5115420;28;20234;-63
2022/01/03 07:53:21;;;;;;;11.13;1.90;;;9.30;99.90;;;;;;5115441;28;20268;-62
2022/01/03 07:55:47;;;;;;;9.40;1.73;;;9.40;99.90;;;;;;5115636;27;20207;-62
2022/01/03 07:58:16;;;;;;;12.73;2.03;;;9.40;99.90;;;;;;5115419;28;20209;-63
2022/01/03 08:00:44;;;;;;;13.40;1.67;;;9.40;99.90;;;;;;5115694;28;20276;-64
2022/01/03 08:03:12;;;;;;;8.13;2.17;;;9.30;99.90;;;;;;5114771;28;20211;-63
2022/01/03 08:05:38;;;;;;;8.53;1.93;;;9.40;99.90;;;;;;5115399;28;20214;-61
2022/01/03 08:08:08;;;;;;;11.10;2.17;;;9.40;99.90;;;;;;5114876;28;20207;-62
2022/01/03 08:10:36;;;;;;;12.23;2.50;;;9.40;99.90;;;;;;5114814;28;20246;-61
2022/01/03 08:13:03;;;;;;;10.57;1.70;;;9.40;99.90;;;;;;5114961;28;20608;-61
2022/01/03 08:15:29;;;;;;;11.47;1.90;;;9.40;99.90;;;;;;5114976;28;20207;-62
2022/01/03 08:17:56;;;;;;;10.50;2.40;;;9.40;99.90;;;;;;5115116;28;20612;-63
2022/01/03 08:20:25;;;;;;;9.83;2.13;;;9.30;99.90;;;;;;5114727;28;20236;-63
2022/01/03 08:22:52;;;;;;;11.13;1.97;;;9.30;1.00;;;;;;5114647;28;20204;-62
2022/01/03 08:25:18;;;;;;;10.70;2.27;;;9.20;1.00;;;;;;5114815;28;20206;-62
2022/01/03 08:27:45;;;;;;;11.80;2.13;;;9.20;1.00;;;;;;5114480;28;20207;-63
2022/01/03 08:30:12;;;;;;;10.67;2.43;;;9.20;1.00;;;;;;5114449;27;20777;-62
2022/01/03 08:32:39;;;;;;;11.60;2.27;;;9.20;1.00;;;;;;5114967;28;20276;-63
2022/01/03 08:35:06;;;;;;;10.77;2.37;;;9.20;1.00;;;;;;5115248;28;20210;-62
2022/01/03 08:37:34;;;;;;;10.93;2.40;;;9.10;1.00;;;;;;5115707;28;20241;-61
2022/01/03 08:40:04;;;;;;;9.90;2.33;;;9.10;1.00;;;;;;5114605;28;20789;-61
2022/01/03 08:42:31;;;;;;;9.37;2.57;;;9.20;1.00;;;;;;5114493;28;20210;-62
2022/01/03 08:44:57;;;;;;;9.47;2.07;;;9.20;1.00;;;;;;5114709;28;20671;-60
2022/01/03 08:47:24;;;;;;;10.10;2.20;;;9.20;1.00;;;;;;5114310;28;20252;-61
2022/01/03 08:49:51;;;;;;;12.00;2.93;;;9.20;1.00;;;;;;5114601;28;20622;-63
2022/01/03 08:52:17;;;;;;;6.33;2.80;;;9.30;1.00;;;;;;5114504;28;20206;-62
2022/01/03 08:54:46;;;;;;;12.10;2.47;;;9.30;1.00;;;;;;5114389;28;20306;-61
2022/01/03 08:57:12;;;;;;;7.27;2.13;;;9.40;1.00;;;;;;5113999;28;20274;-62
2022/01/03 08:59:40;;;;;;;7.57;1.77;;;9.50;1.00;;;;;;5114950;28;20280;-62
2022/01/03 09:02:08;;;;;;;10.00;2.07;;;9.50;99.90;;;;;;5114111;28;20624;-64
2022/01/03 09:04:34;;;;;;;10.63;2.27;;;9.50;99.90;;;;;;5113784;28;20207;-63
2022/01/03 09:07:01;;;;;;;8.70;2.00;;;9.50;99.90;;;;;;5114206;28;20296;-63
2022/01/03 09:09:30;;;;;;;12.80;2.53;;;9.50;99.90;;;;;;5114285;28;20227;-65
2022/01/03 09:11:58;;;;;;;8.47;2.20;;;9.50;99.90;;;;;;5114452;28;20210;-66
2022/01/03 09:14:25;;;;;;;13.00;2.73;;;9.50;99.90;;;;;;5114340;28;20211;-63
2022/01/03 09:16:51;;;;;;;12.50;2.37;;;9.50;99.90;;;;;;5113672;28;20208;-63
2022/01/03 09:19:18;;;;;;;10.63;2.33;;;9.50;1.00;;;;;;5113805;28;20863;-64
2022/01/03 09:21:45;;;;;;;8.90;1.90;;;9.50;1.00;;;;;;5114010;28;20248;-63
2022/01/03 09:24:21;;;;;;;10.43;1.93;;;9.50;1.00;;;;;;5113496;28;20204;-63
2022/01/03 09:29:35;;;;;;;8.83;2.30;;;9.50;1.00;;;;;;5113510;28;20858;-63
2022/01/03 09:32:02;;;;;;;9.37;1.97;;;9.60;99.90;;;;;;5113851;28;20206;-62
2022/01/03 09:34:28;;;;;;;13.33;2.30;;;9.60;99.90;;;;;;5113363;28;20210;-63
2022/01/03 09:36:55;;;;;;;13.13;2.90;;;9.60;99.90;;;;;;5113170;27;20661;-63
2022/01/03 09:39:22;;;;;;;9.87;1.97;;;9.80;99.90;;;;;;5113951;28;20300;-61
2022/01/03 09:42:03;;;;;;;7.50;2.00;;;9.80;99.90;;;;;;5113830;28;20211;-63
2022/01/03 09:44:31;;;;;;;8.50;2.10;;;9.80;99.90;;;;;;5113230;28;20222;-64
2022/01/03 09:47:03;;;;;;;7.17;2.37;;;9.80;99.90;;;;;;5113194;28;20203;-64
2022/01/03 09:49:34;;;;;;;9.80;2.23;;;9.90;99.90;;;;;;5113080;28;20231;-63
2022/01/03 09:52:01;;;;;;;10.30;2.70;;;9.90;99.90;;;;;;5113548;28;20298;-64
2022/01/03 09:54:29;;;;;;;17.20;2.57;;;10.00;99.90;;;;;;5112880;28;20224;-63
2022/01/03 09:56:59;;;;;;;15.43;2.70;;;10.00;99.90;;;;;;5113199;27;20203;-63
2022/01/03 09:59:27;;;;;;;10.97;2.10;;;10.10;99.90;;;;;;5113099;28;20223;-63
2022/01/03 10:01:56;;;;;;;11.70;2.37;;;10.20;99.90;;;;;;5113115;28;20213;-61
2022/01/03 10:04:24;;;;;;;11.10;2.30;;;10.30;99.90;;;;;;5113575;28;20210;-64
2022/01/03 10:06:52;;;;;;;7.17;2.10;;;10.40;99.90;;;;;;5112652;28;20203;-62
2022/01/03 10:09:19;;;;;;;11.97;1.83;;;10.30;99.90;;;;;;5113296;28;20226;-63
2022/01/03 10:11:47;;;;;;;10.23;1.90;;;10.30;99.90;;;;;;5112832;28;20729;-63
2022/01/03 10:14:15;;;;;;;12.93;2.67;;;10.30;99.90;;;;;;5113068;28;20207;-62
2022/01/03 10:16:42;;;;;;;11.70;2.23;;;10.20;99.90;;;;;;5113024;28;20207;-65
2022/01/03 10:19:09;;;;;;;11.90;2.50;;;10.10;99.90;;;;;;5106820;27;20235;-64
2022/01/03 10:21:39;;;;;;;11.63;2.20;;;10.10;99.90;;;;;;5110778;28;20208;-64
2022/01/03 10:24:07;;;;;;;8.27;2.00;;;10.10;99.90;;;;;;5112660;28;20210;-63
2022/01/03 10:26:36;;;;;;;11.17;2.23;;;10.20;99.90;;;;;;5112222;28;20206;-63
2022/01/03 10:29:17;;;;;;;11.43;2.17;;;10.20;99.90;;;;;;5112342;28;20234;-63
2022/01/03 10:31:45;;;;;;;11.30;2.60;;;10.20;99.90;;;;;;5112426;28;20249;-63
2022/01/03 10:34:14;;;;;;;8.53;1.70;;;10.20;99.90;;;;;;5112521;28;20612;-63
2022/01/03 10:36:44;;;;;;;8.00;1.97;;;10.20;99.90;;;;;;5112054;28;20211;-63
2022/01/03 10:39:16;;;;;;;7.17;1.70;;;10.20;99.90;;;;;;5112225;28;20224;-64
2022/01/03 10:41:45;;;;;;;5.97;1.90;;;10.30;99.90;;;;;;5112032;28;20692;-63
2022/01/03 10:44:30;;;;;;;9.03;1.93;;;10.40;99.90;;;;;;5112153;28;20223;-63
2022/01/03 10:46:57;;;;;;;6.77;1.87;;;10.40;99.90;;;;;;5111866;28;20677;-63
2022/01/03 10:49:26;;;;;;;12.80;2.77;;;10.40;99.90;;;;;;5111614;28;20220;-62
2022/01/03 10:52:15;;;;;;;5.03;1.80;;;10.50;98.90;;;;;;5112160;28;20252;-62
2022/01/03 10:54:42;;;;;;;12.63;2.13;;;10.60;57.70;;;;;;5112421;28;20210;-63
2022/01/03 10:57:10;;;;;;;11.27;2.17;;;10.70;34.70;;;;;;5112417;28;20253;-66
2022/01/03 10:59:38;;;;;;;11.30;2.43;;;10.80;1.00;;;;;;5111742;28;20223;-62
2022/01/03 11:02:07;;;;;;;8.30;2.10;;;10.80;1.00;;;;;;5111655;28;20211;-61
2022/01/03 11:04:40;;;;;;;9.93;2.23;;;10.80;1.00;;;;;;5113042;28;20257;-61
2022/01/03 11:13:13;;;;;;;12.20;2.30;;;10.70;1.00;;;;;;5068731;28;20199;-61
2022/01/03 11:15:42;;;;;;;10.30;2.17;;;10.70;15.10;;;;;;5091366;28;20664;-67
2022/01/03 11:18:10;;;;;;;13.50;2.57;;;10.70;1.00;;;;;;5111938;28;20207;-68
2022/01/03 11:20:37;;;;;;;11.57;1.93;;;10.60;48.60;;;;;;5111467;28;20219;-68
2022/01/03 11:23:05;;;;;;;12.17;2.40;;;10.70;50.50;;;;;;5111563;28;20256;-68
2022/01/03 11:25:34;;;;;;;12.50;2.47;;;10.70;6.30;;;;;;5115328;28;20199;-68
2022/01/03 11:28:02;;;;;;;8.57;2.00;;;10.70;53.80;;;;;;5115980;28;20617;-68
2022/01/03 11:30:31;;;;;;;7.57;2.10;;;10.70;1.00;;;;;;5116288;28;20199;-68
2022/01/03 11:33:00;;;;;;;12.63;2.00;;;10.70;9.30;;;;;;5116178;28;20207;-70
2022/01/03 11:35:27;;;;;;;8.40;2.10;;;10.80;36.10;;;;;;5115849;27;20203;-67
2022/01/03 11:37:54;;;;;;;13.93;2.37;;;10.80;11.40;;;;;;5115546;28;20214;-67
2022/01/03 11:40:22;;;;;;;11.93;2.37;;;10.80;15.60;;;;;;5115786;28;20285;-66
2022/01/03 11:42:49;;;;;;;11.00;2.40;;;10.90;30.60;;;;;;5115667;28;20298;-65
2022/01/03 11:45:17;;;;;;;7.23;1.80;;;10.90;26.40;;;;;;5113330;28;20215;-69
2022/01/03 11:47:44;;;;;;;14.53;3.10;;;10.90;1.00;;;;;;5115069;28;20215;-67
2022/01/03 11:50:11;;;;;;;8.10;1.63;;;10.90;8.90;;;;;;5114958;28;20701;-67
2022/01/03 11:52:49;;;;;;;12.03;2.27;;;10.90;1.00;;;;;;5115806;28;20207;-68
2022/01/03 11:55:46;;;;;;;10.00;1.83;;;10.90;1.00;;;;;;5115720;28;20552;-69
2022/01/03 11:58:29;;;;;;;12.17;3.30;;;10.80;1.00;;;;;;5113770;28;20200;-67
2022/01/03 12:03:51;;;;;;;10.17;1.97;;;10.70;17.10;;;;;;5115162;28;20333;-67
2022/01/03 12:06:28;;;;;;;8.50;1.70;;;10.70;1.00;;;;;;5115111;28;20227;-68
2022/01/03 12:08:57;;;;;;;10.13;2.03;;;10.70;76.50;;;;;;5114458;28;20598;-67
2022/01/03 12:11:27;;;;;;;8.00;1.90;;;10.70;93.00;;;;;;5114835;28;20619;-67
2022/01/03 12:17:08;;;;;;;11.27;2.00;;;10.80;30.00;;;;;;5093414;28;20200;-69
2022/01/03 12:19:37;;;;;;;12.30;2.03;;;10.90;1.00;;;;;;5102652;28;20265;-69
2022/01/03 12:22:11;;;;;;;11.60;1.77;;;11.00;1.00;;;;;;5114531;28;20226;-69
2022/01/03 12:24:59;;;;;;;10.87;2.20;;;10.90;1.00;;;;;;5115109;28;20223;-68
2022/01/03 12:27:33;;;;;;;8.43;1.57;;;10.90;8.80;;;;;;5115404;28;20246;-69
2022/01/03 12:30:23;;;;;;;7.90;1.60;;;10.90;1.00;;;;;;5115047;28;20588;-62
2022/01/03 12:33:12;;;;;;;8.90;1.90;;;10.80;1.00;;;;;;5115518;28;20696;-61
2022/01/03 12:35:40;;;;;;;7.63;1.83;;;10.70;1.00;;;;;;5114236;28;20211;-62
2022/01/03 12:38:17;;;;;;;14.67;2.10;;;10.70;6.10;;;;;;5114169;28;20298;-62
2022/01/03 12:40:50;;;;;;;5.93;1.37;;;10.70;76.90;;;;;;5114476;28;20223;-63
2022/01/03 12:43:20;;;;;;;9.57;1.70;;;10.60;1.00;;;;;;5115166;28;20211;-64
2022/01/03 12:45:53;;;;;;;10.50;2.10;;;10.60;28.80;;;;;;5115165;28;20265;-63
2022/01/03 12:48:21;;;;;;;7.90;1.87;;;10.60;1.00;;;;;;5115278;27;20630;-64
2022/01/03 12:51:09;;;;;;;9.03;2.07;;;10.60;37.10;;;;;;5115079;28;20207;-64
2022/01/03 12:53:41;;;;;;;4.57;1.23;;;10.50;19.60;;;;;;5114118;28;20670;-62
2022/01/03 12:56:11;;;;;;;6.83;1.83;;;10.50;1.00;;;;;;5114210;27;20242;-63
2022/01/03 12:58:43;;;;;;;13.33;2.07;;;10.40;19.10;;;;;;5114040;28;20224;-61
2022/01/03 13:01:25;;;;;;;7.63;1.53;;;10.40;99.90;;;;;;5113865;28;20268;-62
2022/01/03 13:03:53;;;;;;;6.13;1.90;;;10.10;99.90;;;;;;5114390;28;20609;-63
2022/01/03 13:06:21;;;;;;;7.40;1.73;;;10.00;99.90;;;;;;5113995;28;20207;-61
2022/01/03 13:09:07;;;;;;;6.17;1.30;;;9.80;99.90;;;;;;5113857;27;20231;-62
2022/01/03 13:11:36;;;;;;;7.77;1.87;;;9.80;99.90;;;;;;5112878;28;20211;-62
2022/01/03 13:14:06;;;;;;;12.17;2.07;;;9.70;1.00;;;;;;5114161;28;20207;-62
2022/01/03 13:16:35;;;;;;;10.20;2.77;;;9.60;1.00;;;;;;5114160;28;20625;-61
2022/01/03 13:19:04;;;;;;;9.07;2.40;;;9.40;1.00;;;;;;5113593;28;20575;-62